createdAt,value
2023-05-02T00:02:23.838Z,12.45
2023-05-02T00:05:26.192Z,11.80
2023-05-02T00:08:27.657Z,12.30
2023-05-02T00:11:29.945Z,11.53
2023-05-02T00:14:31.198Z,14.85
2023-05-02T00:17:32.696Z,13.02
2023-05-02T00:20:34.029Z,13.13
2023-05-02T00:23:35.431Z,12.48
2023-05-02T00:26:37.508Z,11.60
2023-05-02T00:29:38.766Z,13.23
2023-05-02T00:32:40.190Z,13.18
2023-05-02T00:35:41.634Z,12.15
2023-05-02T00:38:43.183Z,13.57
2023-05-02T00:41:45.140Z,12.07
2023-05-02T00:44:46.688Z,12.35
2023-05-02T00:47:49.496Z,14.50
2023-05-02T00:50:51.366Z,12.70
2023-05-02T00:53:53.561Z,12.45
2023-05-02T00:56:55.553Z,11.63
2023-05-02T00:59:57.362Z,11.70
2023-05-02T01:03:10.401Z,12.27
2023-05-02T01:06:22.861Z,12.40
2023-05-02T01:09:34.939Z,12.30
2023-05-02T01:12:42.659Z,12.70
2023-05-02T01:15:45.351Z,10.98
2023-05-02T01:18:47.805Z,11.55
2023-05-02T01:21:50.879Z,13.07
2023-05-02T01:25:00.251Z,10.60
2023-05-02T01:28:14.730Z,10.00
2023-05-02T01:31:17.943Z,9.73
2023-05-02T01:34:21.918Z,10.07
2023-05-02T01:37:24.343Z,10.18
2023-05-02T01:40:26.338Z,9.75
2023-05-02T01:43:28.066Z,9.90
2023-05-02T01:46:33.143Z,9.95
2023-05-02T01:49:36.287Z,10.23
2023-05-02T01:52:38.218Z,11.80
2023-05-02T01:55:41.989Z,11.25
2023-05-02T01:58:45.257Z,9.83
2023-05-02T02:01:49.840Z,11.68
2023-05-02T02:04:53.163Z,10.48
2023-05-02T02:07:54.524Z,10.55
2023-05-02T02:11:00.376Z,11.65
2023-05-02T02:14:07.105Z,9.47
2023-05-02T02:17:15.832Z,10.45
2023-05-02T02:20:18.536Z,11.10
2023-05-02T02:23:22.707Z,11.38
2023-05-02T02:26:24.172Z,10.73
2023-05-02T02:29:25.638Z,11.40
2023-05-02T02:32:27.703Z,10.00
2023-05-02T02:35:34.680Z,10.10
2023-05-02T02:38:42.894Z,9.85
2023-05-02T02:41:55.031Z,8.35
2023-05-02T02:45:04.729Z,9.43
2023-05-02T02:48:19.186Z,9.20
2023-05-02T02:51:29.443Z,8.88
2023-05-02T02:54:35.057Z,8.90
2023-05-02T02:57:40.885Z,8.85
2023-05-02T03:00:42.524Z,8.55
2023-05-02T03:03:45.195Z,7.87
2023-05-02T03:06:46.903Z,8.10
2023-05-02T03:09:48.258Z,7.60
2023-05-02T03:12:49.804Z,8.40
2023-05-02T03:16:23.058Z,7.70
2023-05-02T03:19:25.731Z,7.17
2023-05-02T03:22:27.012Z,9.27
2023-05-02T03:25:28.357Z,7.90
2023-05-02T03:28:29.827Z,7.70
2023-05-02T03:31:31.141Z,9.82
2023-05-02T03:34:33.115Z,9.03
2023-05-02T03:37:34.674Z,8.93
2023-05-02T03:40:36.100Z,7.68
2023-05-02T03:43:37.355Z,8.77
2023-05-02T03:46:38.680Z,8.98
2023-05-02T03:49:40.809Z,8.87
2023-05-02T03:52:42.102Z,7.90
2023-05-02T03:55:43.393Z,8.07
2023-05-02T03:58:44.878Z,8.10
2023-05-02T04:01:48.896Z,7.90
2023-05-02T04:04:51.281Z,8.37
2023-05-02T04:07:52.561Z,7.95
2023-05-02T04:10:53.970Z,7.50
2023-05-02T04:13:55.266Z,7.30
2023-05-02T04:16:56.931Z,7.25
2023-05-02T04:20:00.013Z,7.10
2023-05-02T04:23:02.342Z,7.93
2023-05-02T04:26:03.821Z,6.65
2023-05-02T04:29:05.192Z,8.00
2023-05-02T04:32:07.054Z,6.68
2023-05-02T04:35:10.189Z,5.97
2023-05-02T04:38:11.698Z,7.55
2023-05-02T04:41:13.212Z,7.43
2023-05-02T04:44:14.655Z,7.72
2023-05-02T04:47:16.116Z,7.03
2023-05-02T04:50:18.264Z,6.47
2023-05-02T04:53:21.437Z,7.63
2023-05-02T04:56:22.749Z,7.60
2023-05-02T04:59:24.021Z,5.93
2023-05-02T05:02:25.839Z,6.53
2023-05-02T05:05:28.018Z,5.87
2023-05-02T05:08:29.349Z,7.03
2023-05-02T05:11:30.782Z,6.22
2023-05-02T05:14:32.101Z,7.15
2023-05-02T05:17:33.768Z,8.35
2023-05-02T05:20:35.828Z,6.63
2023-05-02T05:23:37.880Z,7.68
2023-05-02T05:26:39.288Z,8.43
2023-05-02T05:29:40.564Z,6.70
2023-05-02T05:32:42.048Z,7.43
2023-05-02T05:35:44.184Z,7.28
2023-05-02T05:38:45.700Z,6.57
2023-05-02T05:41:47.108Z,6.72
2023-05-02T05:44:48.537Z,8.17
2023-05-02T05:47:50.525Z,8.32
2023-05-02T05:50:53.631Z,9.50
2023-05-02T05:53:55.061Z,6.72
2023-05-02T05:56:56.468Z,10.20
2023-05-02T05:59:57.871Z,8.60
2023-05-02T06:02:59.610Z,7.90
2023-05-02T06:06:01.801Z,8.23
2023-05-02T06:09:03.854Z,9.75
2023-05-02T06:12:05.552Z,10.50
2023-05-02T06:15:07.593Z,10.37
2023-05-02T06:18:09.093Z,12.27
2023-05-02T06:21:11.201Z,12.77
2023-05-02T06:24:12.572Z,12.90
2023-05-02T06:27:13.966Z,12.65
2023-05-02T06:30:15.393Z,12.40
2023-05-02T06:33:16.745Z,10.52
2023-05-02T06:36:18.751Z,11.77
2023-05-02T06:39:20.046Z,11.65
2023-05-02T06:42:21.308Z,10.20
2023-05-02T06:45:22.657Z,10.20
2023-05-02T06:48:24.082Z,11.02
2023-05-02T06:51:26.950Z,11.23
2023-05-02T06:54:28.268Z,9.27
2023-05-02T06:57:29.735Z,10.93
2023-05-02T07:00:31.221Z,9.47
2023-05-02T07:03:32.637Z,9.77
2023-05-02T07:06:34.920Z,10.65
2023-05-02T07:09:36.272Z,10.13
2023-05-02T07:12:38.175Z,7.80
2023-05-02T07:15:39.660Z,9.30
2023-05-02T07:18:41.607Z,9.18
2023-05-02T07:21:43.552Z,9.20
2023-05-02T07:24:44.913Z,10.30
2023-05-02T07:27:46.299Z,9.15
2023-05-02T07:30:47.683Z,9.73
2023-05-02T07:33:48.921Z,8.23
2023-05-02T07:36:50.882Z,7.20
2023-05-02T07:39:52.459Z,9.37
2023-05-02T07:42:53.776Z,7.35
2023-05-02T07:45:55.377Z,7.97
2023-05-02T07:48:56.844Z,8.45
2023-05-02T07:51:58.785Z,8.23
2023-05-02T07:55:00.420Z,6.33
2023-05-02T07:58:01.786Z,6.65
2023-05-02T08:01:03.460Z,8.90
2023-05-02T08:04:05.356Z,8.30
2023-05-02T08:07:07.556Z,8.40
2023-05-02T08:10:10.143Z,9.23
2023-05-02T08:13:11.762Z,7.72
2023-05-02T08:16:13.280Z,7.25
2023-05-02T08:19:15.158Z,6.03
2023-05-02T08:22:17.099Z,7.43
2023-05-02T08:25:18.548Z,5.47
2023-05-02T08:28:19.870Z,6.65
2023-05-02T08:31:21.596Z,7.85
2023-05-02T08:34:22.880Z,6.57
2023-05-02T08:37:25.226Z,6.40
2023-05-02T08:40:38.183Z,7.27
2023-05-02T08:43:44.058Z,6.85
2023-05-02T08:46:46.238Z,7.63
2023-05-02T08:49:49.686Z,6.93
2023-05-02T08:52:52.536Z,6.33
2023-05-02T08:55:54.020Z,7.23
2023-05-02T08:58:55.651Z,6.50
2023-05-02T09:02:00.762Z,6.90
2023-05-02T09:05:07.306Z,6.75
2023-05-02T09:08:09.392Z,6.60
2023-05-02T09:11:12.372Z,5.93
2023-05-02T09:14:14.768Z,6.13
2023-05-02T09:17:16.278Z,7.30
2023-05-02T09:20:17.771Z,8.13
2023-05-02T09:23:19.932Z,6.03
2023-05-02T09:26:22.080Z,5.67
2023-05-02T09:29:23.682Z,6.10
2023-05-02T09:32:44.689Z,6.13
2023-05-02T09:35:53.502Z,6.95
2023-05-02T09:39:10.112Z,6.67
2023-05-02T09:42:11.527Z,5.80
2023-05-02T09:45:23.229Z,5.07
2023-05-02T09:48:25.879Z,5.43
2023-05-02T09:51:27.187Z,7.18
2023-05-02T09:54:38.135Z,6.67
2023-05-02T09:57:40.095Z,7.43
2023-05-02T10:00:43.410Z,5.93
2023-05-02T10:03:47.519Z,6.05
2023-05-02T10:06:51.747Z,6.18
2023-05-02T10:09:58.261Z,5.47
2023-05-02T10:13:01.125Z,5.53
2023-05-02T10:16:04.444Z,5.72
2023-05-02T10:19:09.742Z,6.88
2023-05-02T10:22:12.514Z,5.30
2023-05-02T10:25:14.964Z,5.03
2023-05-02T10:28:16.670Z,6.43
2023-05-02T10:31:18.716Z,6.72
2023-05-02T10:34:21.184Z,7.75
2023-05-02T10:37:23.777Z,7.57
2023-05-02T10:40:26.124Z,9.83
2023-05-02T10:43:30.623Z,8.60
2023-05-02T10:46:33.449Z,10.23
2023-05-02T10:49:49.815Z,10.50
2023-05-02T10:52:51.165Z,10.18
2023-05-02T10:56:13.218Z,12.13
2023-05-02T10:59:36.187Z,10.40
2023-05-02T11:02:48.581Z,10.85
2023-05-02T11:06:05.455Z,7.75
2023-05-02T11:09:35.177Z,9.73
2023-05-02T11:12:45.039Z,7.53
2023-05-02T11:15:59.092Z,8.97
2023-05-02T11:19:01.124Z,7.43
2023-05-02T11:22:32.590Z,9.15
2023-05-02T11:25:36.225Z,8.48
2023-05-02T11:28:43.778Z,10.00
2023-05-02T11:32:03.525Z,7.03
2023-05-02T11:35:06.522Z,6.05
2023-05-02T11:38:11.404Z,7.90
2023-05-02T11:41:13.140Z,6.05
2023-05-02T11:44:15.274Z,8.20
2023-05-02T11:47:16.602Z,5.40
2023-05-02T11:50:18.152Z,8.02
2023-05-02T11:53:22.409Z,5.82
2023-05-02T11:56:25.807Z,7.18
2023-05-02T11:59:27.888Z,7.87
2023-05-02T12:02:36.235Z,10.30
2023-05-02T12:05:37.630Z,9.95
2023-05-02T12:08:40.149Z,8.38
2023-05-02T12:11:41.457Z,8.18
2023-05-02T12:14:43.722Z,8.37
2023-05-02T12:17:48.161Z,7.57
2023-05-02T12:20:51.417Z,7.88
2023-05-02T12:23:53.349Z,12.60
2023-05-02T12:27:09.198Z,10.95
2023-05-02T12:30:25.392Z,8.93
2023-05-02T12:33:26.755Z,10.00
2023-05-02T12:36:28.925Z,10.88
2023-05-02T12:39:37.549Z,9.98
2023-05-02T12:42:39.081Z,9.23
2023-05-02T12:45:41.257Z,11.87
2023-05-02T12:48:44.207Z,12.77
2023-05-02T12:51:55.001Z,9.43
2023-05-02T12:55:17.403Z,8.07
2023-05-02T12:58:18.945Z,8.65
2023-05-02T13:01:20.954Z,8.90
2023-05-02T13:04:22.494Z,11.93
2023-05-02T13:07:24.025Z,11.60
2023-05-02T13:10:26.059Z,10.95
2023-05-02T13:13:27.494Z,7.63
2023-05-02T13:16:29.559Z,10.03
2023-05-02T13:19:30.879Z,8.53
2023-05-02T13:22:32.210Z,7.25
2023-05-02T13:25:33.693Z,8.30
2023-05-02T13:28:36.620Z,8.80
2023-05-02T13:31:38.899Z,8.70
2023-05-02T13:34:40.996Z,10.23
2023-05-02T13:37:42.279Z,9.68
2023-05-02T13:40:43.733Z,8.38
2023-05-02T13:43:45.562Z,8.80
2023-05-02T13:46:48.437Z,7.17
2023-05-02T13:49:50.117Z,6.47
2023-05-02T13:52:51.539Z,7.00
2023-05-02T13:55:53.072Z,7.10
2023-05-02T13:58:54.447Z,9.07
2023-05-02T14:01:56.532Z,8.57
2023-05-02T14:04:57.869Z,6.70
2023-05-02T14:07:59.144Z,6.10
2023-05-02T14:11:00.428Z,6.60
2023-05-02T14:14:01.900Z,8.23
2023-05-02T14:17:04.633Z,7.17
2023-05-02T14:20:09.677Z,7.73
2023-05-02T14:23:11.298Z,8.15
2023-05-02T14:26:13.294Z,6.18
2023-05-02T14:29:14.769Z,8.60
2023-05-02T14:32:17.049Z,7.83
2023-05-02T14:35:18.587Z,8.90
2023-05-02T14:38:19.884Z,8.32
2023-05-02T14:41:21.306Z,7.88
2023-05-02T14:44:22.825Z,8.43
2023-05-02T14:47:24.788Z,7.17
2023-05-02T14:50:26.228Z,10.37
2023-05-02T14:53:27.514Z,8.18
2023-05-02T14:56:28.922Z,9.05
2023-05-02T14:59:30.657Z,7.78
2023-05-02T15:02:32.793Z,10.17
2023-05-02T15:05:35.529Z,8.23
2023-05-02T15:08:38.060Z,5.95
2023-05-02T15:11:40.471Z,7.88
2023-05-02T15:14:41.923Z,9.38
2023-05-02T15:17:44.300Z,9.90
2023-05-02T15:20:45.651Z,7.10
2023-05-02T15:23:47.069Z,5.97
2023-05-02T15:26:48.624Z,7.40
2023-05-02T15:29:50.364Z,8.80
2023-05-02T15:32:52.479Z,7.60
2023-05-02T15:35:55.517Z,8.30
2023-05-02T15:38:56.955Z,6.68
2023-05-02T15:41:58.217Z,8.40
2023-05-02T15:44:59.605Z,7.45
2023-05-02T15:48:01.741Z,6.60
2023-05-02T15:51:04.665Z,9.00
2023-05-02T15:54:06.316Z,7.88
2023-05-02T15:57:07.736Z,7.57
2023-05-02T16:00:15.851Z,8.23
2023-05-02T16:03:17.842Z,8.37
2023-05-02T16:06:19.419Z,8.37
2023-05-02T16:09:20.733Z,7.90
2023-05-02T16:12:22.047Z,8.13
2023-05-02T16:15:23.678Z,7.93
2023-05-02T16:18:27.380Z,6.03
2023-05-02T16:21:28.685Z,8.10
2023-05-02T16:24:29.968Z,6.03
2023-05-02T16:27:32.793Z,10.48
2023-05-02T16:30:45.838Z,7.40
2023-05-02T16:33:48.745Z,6.53
2023-05-02T16:36:50.706Z,7.28
2023-05-02T16:39:52.035Z,7.13
2023-05-02T16:42:53.539Z,6.27
2023-05-02T16:46:01.384Z,6.13
2023-05-02T16:49:03.442Z,6.88
2023-05-02T16:52:05.126Z,7.30
2023-05-02T16:55:06.879Z,5.53
2023-05-02T16:58:08.177Z,7.70
2023-05-02T17:01:09.779Z,5.90
2023-05-02T17:04:11.838Z,5.95
2023-05-02T17:07:13.139Z,6.88
2023-05-02T17:10:14.561Z,8.07
2023-05-02T17:13:15.932Z,5.15
2023-05-02T17:16:17.844Z,5.53
2023-05-02T17:19:19.948Z,6.30
2023-05-02T17:22:21.274Z,8.13
2023-05-02T17:25:22.765Z,5.28
2023-05-02T17:28:24.060Z,6.53
2023-05-02T17:31:25.427Z,5.78
2023-05-02T17:34:29.538Z,6.43
2023-05-02T17:37:32.104Z,5.83
2023-05-02T17:40:34.142Z,7.05
2023-05-02T17:43:37.382Z,5.72
2023-05-02T17:46:38.702Z,7.05
2023-05-02T17:49:41.189Z,5.57
2023-05-02T17:52:42.637Z,5.97
2023-05-02T17:55:43.952Z,4.63
2023-05-02T17:58:45.469Z,6.72
2023-05-02T18:01:46.804Z,5.55
2023-05-02T18:04:49.238Z,5.88
2023-05-02T18:07:50.489Z,3.90
2023-05-02T18:10:51.911Z,3.75
2023-05-02T18:13:53.212Z,4.72
2023-05-02T18:16:55.628Z,5.55
2023-05-02T18:19:57.853Z,4.53
2023-05-02T18:23:00.491Z,4.63
2023-05-02T18:26:01.939Z,5.78
2023-05-02T18:29:03.200Z,6.38
2023-05-02T18:32:04.629Z,6.20
2023-05-02T18:35:10.401Z,6.30
2023-05-02T18:38:12.028Z,7.53
2023-05-02T18:41:13.247Z,7.65
2023-05-02T18:44:14.519Z,5.45
2023-05-02T18:47:16.497Z,5.50
2023-05-02T18:50:18.598Z,5.15
2023-05-02T18:53:22.152Z,4.93
2023-05-02T18:56:24.684Z,5.97
2023-05-02T18:59:26.134Z,4.72
2023-05-02T19:02:27.479Z,4.72
2023-05-02T19:05:29.789Z,5.00
2023-05-02T19:08:31.595Z,6.50
2023-05-02T19:11:33.082Z,3.72
2023-05-02T19:14:35.306Z,5.00
2023-05-02T19:17:36.711Z,6.85
2023-05-02T19:20:38.880Z,6.93
2023-05-02T19:23:40.538Z,5.73
2023-05-02T19:26:41.965Z,6.47
2023-05-02T19:29:43.662Z,5.82
2023-05-02T19:32:44.980Z,6.97
2023-05-02T19:35:47.328Z,5.65
2023-05-02T19:38:49.789Z,4.63
2023-05-02T19:41:51.266Z,4.53
2023-05-02T19:44:52.616Z,4.30
2023-05-02T19:47:53.969Z,7.70
2023-05-02T19:50:56.087Z,5.32
2023-05-02T19:53:57.928Z,5.37
2023-05-02T19:56:59.417Z,6.70
2023-05-02T20:00:00.770Z,6.28
2023-05-02T20:03:02.913Z,5.82
2023-05-02T20:06:05.330Z,6.45
2023-05-02T20:09:06.718Z,7.87
2023-05-02T20:12:08.249Z,5.55
2023-05-02T20:15:10.174Z,5.18
2023-05-02T20:18:12.784Z,4.87
2023-05-02T20:21:15.592Z,5.43
2023-05-02T20:24:17.029Z,5.80
2023-05-02T20:27:18.440Z,6.57
2023-05-02T20:30:19.988Z,6.50
2023-05-02T20:33:25.061Z,5.50
2023-05-02T20:36:30.092Z,5.10
2023-05-02T20:39:31.700Z,7.15
2023-05-02T20:42:33.018Z,6.97
2023-05-02T20:45:34.582Z,6.75
2023-05-02T20:48:35.888Z,4.80
2023-05-02T20:51:37.951Z,5.60
2023-05-02T20:54:39.402Z,6.25
2023-05-02T20:57:40.948Z,7.53
2023-05-02T21:00:42.303Z,5.07
2023-05-02T21:03:43.782Z,6.90
2023-05-02T21:06:46.561Z,4.17
2023-05-02T21:09:48.252Z,4.40
2023-05-02T21:12:49.598Z,7.57
2023-05-02T21:15:51.074Z,5.97
2023-05-02T21:18:52.599Z,5.28
2023-05-02T21:21:54.556Z,6.70
2023-05-02T21:24:56.051Z,5.95
2023-05-02T21:27:57.559Z,4.70
2023-05-02T21:31:00.816Z,6.67
2023-05-02T21:34:02.256Z,6.03
2023-05-02T21:37:04.214Z,6.78
2023-05-02T21:40:07.023Z,5.15
2023-05-02T21:43:08.319Z,4.78
2023-05-02T21:46:10.711Z,5.23
2023-05-02T21:49:11.975Z,6.65
2023-05-02T21:52:14.029Z,6.07
2023-05-02T21:55:15.637Z,4.60
2023-05-02T21:58:16.915Z,5.65
2023-05-02T22:01:18.348Z,5.00
2023-05-02T22:04:19.875Z,5.13
2023-05-02T22:07:21.943Z,5.85
2023-05-02T22:10:23.285Z,5.07
2023-05-02T22:13:24.786Z,7.07
2023-05-02T22:16:26.292Z,5.30
2023-05-02T22:19:27.673Z,4.78
2023-05-02T22:22:29.817Z,5.43
2023-05-02T22:25:31.323Z,4.10
2023-05-02T22:28:32.911Z,4.88
2023-05-02T22:31:34.212Z,5.30
2023-05-02T22:34:35.613Z,6.10
2023-05-02T22:37:37.575Z,5.57
2023-05-02T22:40:38.989Z,5.63
2023-05-02T22:43:40.235Z,5.65
2023-05-02T22:46:41.696Z,6.07
2023-05-02T22:49:43.810Z,5.63
2023-05-02T22:52:46.325Z,5.25
2023-05-02T22:55:47.855Z,5.78
2023-05-02T22:58:49.198Z,5.72
2023-05-02T23:01:50.740Z,6.87
2023-05-02T23:04:52.074Z,5.35
2023-05-02T23:07:54.815Z,6.25
2023-05-02T23:10:56.257Z,6.55
2023-05-02T23:13:57.658Z,6.18
2023-05-02T23:17:00.879Z,5.80
2023-05-02T23:20:02.533Z,6.13
2023-05-02T23:23:05.070Z,4.47
2023-05-02T23:26:06.638Z,5.32
2023-05-02T23:29:08.035Z,8.07
2023-05-02T23:32:09.399Z,6.10
2023-05-02T23:35:11.787Z,6.32
2023-05-02T23:38:14.013Z,6.10
2023-05-02T23:41:15.515Z,6.07
2023-05-02T23:44:16.937Z,5.07
2023-05-02T23:47:18.838Z,6.50
2023-05-02T23:50:20.215Z,5.60
2023-05-02T23:53:22.148Z,7.03
2023-05-02T23:56:23.582Z,6.70
2023-05-02T23:59:24.876Z,5.47
